Essex, Maryland
Current Conditions -  °F | °C
As of 3:45 PM on Tuesday 25 Nov 2014 (Local Time) from KMTN Reporting Station
Broken Clouds Broken Clouds  
Wind Chill: 55°   Ceiling: 15000
Heat Index: 55°   Visibility: 10mi
Dew Point: 34°   Wind: 3mph
Humidity: 44%   Direction: 280°W
Pressure: 30.06"   Gusts: NA
Location:  39.31°N, 76.48°W
Report Text: KMTN 252045Z 28003KT 10SM BKN150 13/01 A3006
Loading
Personal Weather Stations






























Interactive Weather Map New forecast layout! Learn more

10-Day Weather Forecast

Advertisements
Track Severe Weather on mobile